Time;durP1;ratioP1;P1;durP2;ratioP2;P2;SDS_P1;SDS_P2;PMS_P1;PMS_P2;Temp;Humidity;BMP_temperature;BMP_pressure;BME280_temperature;BME280_humidity;BME280_pressure;Samples;Min_cycle;Max_cycle;Signal;HPM_P1;HPM_P2
2022/05/31 00:01:28;;;;;;;5.60;3.28;;;9.80;99.90;;;;;;4908442;29;20053;-89
2022/05/31 00:03:54;;;;;;;6.35;3.80;;;9.80;99.90;;;;;;4906220;29;20043;-89
2022/05/31 00:06:19;;;;;;;5.57;3.30;;;9.80;99.90;;;;;;4920942;29;20040;-90
2022/05/31 00:08:45;;;;;;;5.82;3.40;;;9.80;99.90;;;;;;4922236;29;20107;-90
2022/05/31 00:11:11;;;;;;;7.10;3.20;;;9.80;99.90;;;;;;4936820;29;20056;-90
2022/05/31 00:13:37;;;;;;;6.32;3.08;;;9.90;99.90;;;;;;4920616;29;20048;-88
2022/05/31 00:16:02;;;;;;;6.63;3.38;;;9.90;99.90;;;;;;4919176;29;20378;-89
2022/05/31 00:18:28;;;;;;;5.03;3.05;;;9.90;99.90;;;;;;4926643;29;20493;-89
2022/05/31 00:20:53;;;;;;;5.75;3.00;;;9.90;99.90;;;;;;4907305;29;20083;-91
2022/05/31 00:23:20;;;;;;;5.57;3.00;;;9.90;99.90;;;;;;4921956;29;20043;-90
2022/05/31 00:25:46;;;;;;;6.65;3.33;;;9.90;99.90;;;;;;4927611;29;20047;-91
2022/05/31 00:28:12;;;;;;;6.05;3.28;;;9.90;99.90;;;;;;4899484;29;20090;-92
2022/05/31 00:30:39;;;;;;;6.72;3.60;;;9.90;99.90;;;;;;4933182;29;20035;-93
2022/05/31 00:33:06;;;;;;;7.03;3.47;;;9.90;99.90;;;;;;4914796;29;20044;-90
2022/05/31 00:35:36;;;;;;;6.20;3.58;;;9.90;99.90;;;;;;4921754;29;20957;-90
2022/05/31 00:38:02;;;;;;;7.05;3.20;;;9.90;99.90;;;;;;4925784;29;20515;-90
2022/05/31 00:40:30;;;;;;;7.15;3.25;;;9.80;99.90;;;;;;4911928;29;20051;-90
2022/05/31 00:43:07;;;;;;;5.95;3.50;;;9.80;99.90;;;;;;4915719;29;20409;-90
2022/05/31 00:45:39;;;;;;;6.75;3.53;;;9.80;99.90;;;;;;4894186;29;20055;-90
2022/05/31 00:48:09;;;;;;;6.60;3.58;;;9.80;99.90;;;;;;4889284;29;20052;-91
2022/05/31 00:50:41;;;;;;;5.82;3.13;;;9.80;99.90;;;;;;4930383;29;20491;-90
2022/05/31 00:53:22;;;;;;;6.13;3.35;;;9.80;99.90;;;;;;4918480;29;20055;-90
2022/05/31 00:55:52;;;;;;;6.07;3.70;;;9.80;99.90;;;;;;4922651;29;20075;-90
2022/05/31 00:58:34;;;;;;;6.15;3.72;;;9.80;99.90;;;;;;4919599;29;20051;-90
2022/05/31 01:01:06;;;;;;;7.13;3.67;;;9.80;99.90;;;;;;4907421;29;20066;-90
2022/05/31 01:03:38;;;;;;;6.10;3.50;;;9.70;99.90;;;;;;4916808;29;20059;-91
2022/05/31 01:06:04;;;;;;;4.88;2.75;;;9.80;99.90;;;;;;4918578;29;20059;-91
2022/05/31 01:08:30;;;;;;;5.55;3.22;;;9.60;99.90;;;;;;4922636;29;20058;-90
2022/05/31 01:10:56;;;;;;;6.28;3.10;;;9.70;99.90;;;;;;4901503;29;20048;-90
2022/05/31 01:13:22;;;;;;;6.22;3.33;;;9.80;99.90;;;;;;4937170;29;20365;-91
2022/05/31 01:15:50;;;;;;;6.20;3.40;;;9.70;99.90;;;;;;4910131;29;20551;-90
2022/05/31 01:18:16;;;;;;;5.53;3.22;;;9.70;99.90;;;;;;4913445;29;20051;-91
2022/05/31 01:20:42;;;;;;;6.07;3.33;;;9.80;99.90;;;;;;4915411;29;20426;-91
2022/05/31 01:23:18;;;;;;;5.40;3.17;;;9.70;99.90;;;;;;4897218;29;20072;-90
2022/05/31 01:26:00;;;;;;;6.25;3.60;;;9.70;99.90;;;;;;4904243;29;20171;-91
2022/05/31 01:28:38;;;;;;;6.20;3.70;;;9.70;99.90;;;;;;4916302;29;20043;-90
2022/05/31 01:31:17;;;;;;;7.25;3.90;;;9.70;99.90;;;;;;4909420;29;20143;-91
2022/05/31 01:34:29;;;;;;;6.32;3.90;;;9.70;99.90;;;;;;4916550;29;20055;-92
2022/05/31 01:36:56;;;;;;;6.28;3.70;;;9.60;99.90;;;;;;4835380;29;20058;-90
2022/05/31 01:39:25;;;;;;;6.50;3.28;;;9.60;99.90;;;;;;4814499;29;20065;-90
2022/05/31 01:42:00;;;;;;;6.35;3.83;;;9.60;99.90;;;;;;4836405;29;20085;-91
2022/05/31 01:44:30;;;;;;;6.88;4.10;;;9.60;99.90;;;;;;4807254;29;20455;-90
2022/05/31 01:46:58;;;;;;;6.75;3.83;;;9.60;99.90;;;;;;4828170;29;20493;-90
2022/05/31 01:49:30;;;;;;;6.38;3.75;;;9.60;99.90;;;;;;4845711;29;20121;-91
2022/05/31 01:51:56;;;;;;;6.50;3.63;;;9.60;99.90;;;;;;4830786;29;20261;-90
2022/05/31 01:54:22;;;;;;;6.38;3.63;;;9.60;99.90;;;;;;4810344;29;20041;-89
2022/05/31 01:56:52;;;;;;;6.75;3.80;;;9.60;99.90;;;;;;4838683;29;20530;-90
2022/05/31 01:59:18;;;;;;;6.53;3.80;;;9.60;99.90;;;;;;4825038;29;20134;-89
2022/05/31 02:01:45;;;;;;;7.63;3.85;;;9.60;99.90;;;;;;4806917;29;20144;-90
2022/05/31 02:04:15;;;;;;;6.95;4.00;;;9.60;99.90;;;;;;4804874;29;20498;-89
2022/05/31 02:06:41;;;;;;;7.20;4.00;;;9.70;99.90;;;;;;4808438;29;20049;-89
2022/05/31 02:09:10;;;;;;;7.55;3.80;;;9.60;99.90;;;;;;4830580;29;20046;-90
2022/05/31 02:11:37;;;;;;;7.00;4.00;;;9.70;99.90;;;;;;4819106;29;20080;-92
2022/05/31 02:14:04;;;;;;;6.38;3.72;;;9.70;99.90;;;;;;4896648;29;20055;-89
2022/05/31 02:16:30;;;;;;;7.93;4.13;;;9.70;99.90;;;;;;4916145;29;20115;-90
2022/05/31 02:21:41;;;;;;;6.82;3.92;;;9.70;99.90;;;;;;4912718;29;20050;-89
2022/05/31 02:24:12;;;;;;;7.88;4.13;;;9.70;99.90;;;;;;4893729;29;20127;-89
2022/05/31 02:26:41;;;;;;;6.45;3.85;;;9.70;99.90;;;;;;4917065;29;20490;-90
2022/05/31 02:29:09;;;;;;;6.38;4.20;;;9.70;99.90;;;;;;4911971;29;20130;-89
2022/05/31 02:31:36;;;;;;;7.10;4.35;;;9.70;99.90;;;;;;4905411;29;20394;-90
2022/05/31 02:34:02;;;;;;;7.28;4.10;;;9.70;99.90;;;;;;4908520;29;20044;-91
2022/05/31 02:36:28;;;;;;;7.43;4.18;;;9.70;99.90;;;;;;4916125;29;20569;-89
2022/05/31 02:38:55;;;;;;;6.72;4.18;;;9.70;99.90;;;;;;4901439;29;20043;-90
2022/05/31 02:41:21;;;;;;;8.55;4.30;;;9.70;99.90;;;;;;4907946;29;20524;-90
2022/05/31 02:43:47;;;;;;;7.28;4.40;;;9.70;99.90;;;;;;4907761;29;20040;-90
2022/05/31 02:46:13;;;;;;;7.82;4.38;;;9.70;99.90;;;;;;4930776;29;20051;-90
2022/05/31 02:48:39;;;;;;;6.70;4.18;;;9.60;99.90;;;;;;4907351;29;20142;-90
2022/05/31 02:51:05;;;;;;;7.50;4.72;;;9.70;99.90;;;;;;4924046;29;20068;-90
2022/05/31 02:53:31;;;;;;;6.82;4.40;;;9.70;99.90;;;;;;4911149;29;20139;-90
2022/05/31 02:55:57;;;;;;;8.02;4.30;;;9.70;99.90;;;;;;4898480;29;20136;-89
2022/05/31 02:58:25;;;;;;;6.93;4.30;;;9.70;99.90;;;;;;4913843;29;20071;-90
2022/05/31 03:00:51;;;;;;;6.97;4.45;;;9.80;99.90;;;;;;4923552;29;20055;-89
2022/05/31 03:03:17;;;;;;;7.03;4.40;;;9.70;99.90;;;;;;4891358;29;20048;-90
2022/05/31 03:05:43;;;;;;;8.10;4.70;;;9.70;99.90;;;;;;4921529;29;20043;-90
2022/05/31 03:08:08;;;;;;;7.70;4.30;;;9.70;99.90;;;;;;4931830;29;20866;-88
2022/05/31 03:10:38;;;;;;;7.88;4.43;;;9.70;99.90;;;;;;4916807;29;20366;-89
2022/05/31 03:13:04;;;;;;;7.15;4.65;;;9.70;99.90;;;;;;4915952;29;20487;-89
2022/05/31 03:15:32;;;;;;;8.88;4.80;;;9.80;99.90;;;;;;4919588;29;20043;-89
2022/05/31 03:18:08;;;;;;;6.72;4.20;;;9.80;99.90;;;;;;4913371;29;20127;-88
2022/05/31 03:20:40;;;;;;;7.47;4.65;;;9.80;99.90;;;;;;4941987;29;20040;-91
2022/05/31 03:23:17;;;;;;;8.27;4.95;;;9.80;99.90;;;;;;4906752;29;20052;-88
2022/05/31 03:25:46;;;;;;;8.05;4.38;;;9.80;99.90;;;;;;4897274;29;20052;-88
2022/05/31 03:28:12;;;;;;;8.13;4.80;;;9.80;99.90;;;;;;4914019;29;20095;-90
2022/05/31 03:30:38;;;;;;;8.45;4.60;;;9.80;99.90;;;;;;4917688;29;20047;-90
2022/05/31 03:33:09;;;;;;;8.50;5.05;;;9.80;99.90;;;;;;4924782;29;20047;-90
2022/05/31 03:35:36;;;;;;;7.50;4.82;;;9.80;99.90;;;;;;4920473;29;20047;-89
2022/05/31 03:38:02;;;;;;;7.22;5.00;;;9.80;99.90;;;;;;4900482;29;20382;-89
2022/05/31 03:43:13;;;;;;;8.13;5.03;;;9.80;99.90;;;;;;4935673;29;20397;-90
2022/05/31 03:45:41;;;;;;;8.48;5.20;;;9.90;99.90;;;;;;4917144;29;20067;-90
2022/05/31 03:48:07;;;;;;;8.68;5.25;;;9.90;99.90;;;;;;4880210;29;20048;-90
2022/05/31 03:50:33;;;;;;;8.82;5.43;;;9.90;99.90;;;;;;4921188;29;20048;-90
2022/05/31 03:52:59;;;;;;;7.95;5.20;;;9.90;99.90;;;;;;4918965;29;20463;-89
2022/05/31 03:55:25;;;;;;;8.65;5.65;;;9.90;99.90;;;;;;4909362;29;20519;-89
2022/05/31 03:57:52;;;;;;;8.25;5.35;;;9.90;99.90;;;;;;4923378;29;20084;-90
2022/05/31 04:00:18;;;;;;;7.55;5.03;;;9.90;99.90;;;;;;4908369;29;20552;-90
2022/05/31 04:02:45;;;;;;;8.40;5.10;;;9.90;99.90;;;;;;4921459;29;20045;-87
2022/05/31 04:05:11;;;;;;;8.00;5.18;;;10.00;99.90;;;;;;4895860;29;20066;-89
2022/05/31 04:07:37;;;;;;;7.43;4.85;;;10.00;99.90;;;;;;4910836;29;20054;-90
2022/05/31 04:10:05;;;;;;;7.90;5.35;;;10.00;99.90;;;;;;4905929;29;20481;-89
2022/05/31 04:12:34;;;;;;;7.63;5.35;;;10.00;99.90;;;;;;4910982;29;20112;-89
2022/05/31 04:14:59;;;;;;;8.00;5.50;;;10.10;99.90;;;;;;4909526;29;20126;-89
2022/05/31 04:17:25;;;;;;;9.07;6.10;;;10.10;99.90;;;;;;4893883;29;20175;-90
2022/05/31 04:19:51;;;;;;;7.97;5.50;;;10.10;99.90;;;;;;4925180;29;20706;-89
2022/05/31 04:22:16;;;;;;;9.00;5.75;;;10.10;99.90;;;;;;4910198;29;20044;-89
2022/05/31 04:24:42;;;;;;;8.05;5.18;;;10.10;99.90;;;;;;4911585;29;20048;-90
2022/05/31 04:27:13;;;;;;;7.43;5.30;;;10.10;99.90;;;;;;4895854;29;20058;-89
2022/05/31 04:29:39;;;;;;;8.13;5.55;;;10.10;99.90;;;;;;4931945;29;20035;-89
2022/05/31 04:32:05;;;;;;;9.80;5.78;;;10.10;99.90;;;;;;4917739;29;20060;-90
2022/05/31 04:34:31;;;;;;;9.55;5.55;;;10.20;99.90;;;;;;4926291;29;20033;-89
2022/05/31 04:36:57;;;;;;;8.90;5.38;;;10.20;99.90;;;;;;4919288;29;20062;-89
2022/05/31 04:39:22;;;;;;;9.48;5.15;;;10.30;99.90;;;;;;4904165;29;20054;-88
2022/05/31 04:41:48;;;;;;;11.52;5.85;;;10.20;99.90;;;;;;4919531;29;20044;-90
2022/05/31 04:44:16;;;;;;;9.88;6.03;;;10.20;99.90;;;;;;4895803;29;20486;-89
2022/05/31 04:46:42;;;;;;;9.02;5.75;;;10.30;99.90;;;;;;4935446;29;20048;-90
2022/05/31 04:49:08;;;;;;;9.43;5.90;;;10.30;99.90;;;;;;4914218;29;20066;-89
2022/05/31 04:51:34;;;;;;;8.15;5.88;;;10.30;99.90;;;;;;4912320;29;20215;-89
2022/05/31 04:54:01;;;;;;;8.63;5.63;;;10.40;99.90;;;;;;4899674;29;20048;-91
2022/05/31 04:56:27;;;;;;;8.30;5.10;;;10.40;99.90;;;;;;4906527;29;20055;-90
2022/05/31 04:58:53;;;;;;;8.57;5.93;;;10.40;99.90;;;;;;4910670;29;20040;-89
2022/05/31 05:01:20;;;;;;;8.82;5.70;;;10.40;99.90;;;;;;4909806;29;20127;-92
2022/05/31 05:03:46;;;;;;;8.55;5.93;;;10.40;99.90;;;;;;4916004;29;20059;-89
2022/05/31 05:06:19;;;;;;;8.20;5.78;;;10.40;99.90;;;;;;4916620;29;20048;-92
2022/05/31 05:08:45;;;;;;;9.05;5.72;;;10.60;99.90;;;;;;4918903;29;20441;-91
2022/05/31 05:11:16;;;;;;;8.98;5.85;;;10.50;99.90;;;;;;4899662;29;20049;-89
2022/05/31 05:13:42;;;;;;;8.85;6.07;;;10.50;99.90;;;;;;4908484;29;20044;-92
2022/05/31 05:16:10;;;;;;;8.27;6.07;;;10.60;99.90;;;;;;4914415;29;20067;-93
2022/05/31 05:18:36;;;;;;;9.25;5.90;;;10.60;99.90;;;;;;4912115;29;20090;-91
2022/05/31 05:21:04;;;;;;;9.35;6.22;;;10.60;99.90;;;;;;4916778;29;20123;-90
2022/05/31 05:23:30;;;;;;;8.68;5.72;;;10.80;99.90;;;;;;4894547;29;20044;-91
2022/05/31 05:25:57;;;;;;;8.23;5.72;;;10.80;99.90;;;;;;4921608;29;20131;-90
2022/05/31 05:31:22;;;;;;;8.73;5.82;;;10.90;99.90;;;;;;4897287;29;20187;-89
2022/05/31 05:33:48;;;;;;;9.02;5.55;;;10.90;99.90;;;;;;4915094;29;20040;-91
2022/05/31 05:36:13;;;;;;;9.30;6.00;;;10.90;99.90;;;;;;4914039;29;20071;-92
2022/05/31 05:38:39;;;;;;;8.60;5.63;;;11.00;99.90;;;;;;4908488;29;20048;-90
2022/05/31 05:41:04;;;;;;;8.95;5.97;;;11.00;99.90;;;;;;4915139;29;20051;-89
2022/05/31 05:43:30;;;;;;;8.05;6.07;;;11.10;99.90;;;;;;4907162;29;20056;-90
2022/05/31 05:45:55;;;;;;;8.27;5.85;;;11.10;99.90;;;;;;4921421;29;20040;-89
2022/05/31 05:48:21;;;;;;;8.45;5.80;;;11.20;99.90;;;;;;4929601;29;20368;-90
2022/05/31 05:50:47;;;;;;;8.02;5.38;;;11.20;99.90;;;;;;4902970;29;20499;-88
2022/05/31 05:53:13;;;;;;;8.10;5.50;;;11.30;99.90;;;;;;4915446;29;20065;-89
2022/05/31 05:55:39;;;;;;;8.55;5.28;;;11.40;99.90;;;;;;4898170;29;20048;-87
2022/05/31 05:58:09;;;;;;;8.82;5.07;;;11.40;99.90;;;;;;4908436;29;20104;-90
2022/05/31 06:00:47;;;;;;;8.80;5.38;;;11.40;99.90;;;;;;4906335;29;20382;-89
2022/05/31 06:03:18;;;;;;;8.15;5.18;;;11.50;99.90;;;;;;4908378;29;20160;-93
2022/05/31 06:05:46;;;;;;;;;;;11.60;99.90;;;;;;4902726;29;20563;-89
2022/05/31 06:08:44;;;;;;;8.02;5.25;;;11.50;99.90;;;;;;4914572;29;19931;-90
2022/05/31 06:11:21;;;;;;;8.32;5.07;;;11.60;99.90;;;;;;4905087;29;20463;-90
2022/05/31 06:14:10;;;;;;;8.85;5.47;;;11.60;99.90;;;;;;4913325;29;20040;-93
2022/05/31 06:16:42;;;;;;;8.05;4.93;;;11.70;99.90;;;;;;4892365;29;20067;-90
2022/05/31 06:19:17;;;;;;;8.60;5.40;;;11.70;99.90;;;;;;4919674;29;20071;-90
2022/05/31 06:21:45;;;;;;;9.77;5.60;;;11.80;99.90;;;;;;4923201;29;20719;-94
2022/05/31 06:24:11;;;;;;;8.10;5.00;;;11.80;99.90;;;;;;4919799;29;20068;-91
2022/05/31 06:26:36;;;;;;;7.85;5.30;;;11.90;99.90;;;;;;4912326;29;20044;-93
2022/05/31 06:29:03;;;;;;;8.02;5.05;;;12.00;99.90;;;;;;4924287;29;20560;-92
2022/05/31 06:31:29;;;;;;;9.27;5.63;;;12.00;99.90;;;;;;4909667;29;20052;-91
2022/05/31 06:33:55;;;;;;;8.15;5.22;;;12.10;99.90;;;;;;4918525;29;20044;-90
2022/05/31 06:36:20;;;;;;;8.02;5.40;;;12.20;99.90;;;;;;4911896;29;20051;-91
2022/05/31 06:38:46;;;;;;;7.60;4.70;;;12.20;99.90;;;;;;4909565;29;20048;-91
2022/05/31 06:41:12;;;;;;;8.50;5.20;;;12.30;99.90;;;;;;4917391;29;20455;-92
2022/05/31 06:43:38;;;;;;;7.80;4.72;;;12.40;99.90;;;;;;4917587;29;20241;-93
2022/05/31 06:46:08;;;;;;;8.82;5.32;;;12.50;99.90;;;;;;4926187;29;20489;-94
2022/05/31 06:48:34;;;;;;;8.85;5.40;;;12.50;99.90;;;;;;4932395;29;20511;-94
2022/05/31 06:51:08;;;;;;;7.72;5.10;;;12.50;99.90;;;;;;4913773;29;20040;-95
2022/05/31 06:59:09;;;;;;;7.53;5.28;;;13.00;99.90;;;;;;4917352;29;20561;-95
2022/05/31 07:01:39;;;;;;;8.20;5.30;;;13.20;99.90;;;;;;4917100;29;20043;-94
2022/05/31 07:04:05;;;;;;;8.30;5.07;;;13.40;99.90;;;;;;4930239;29;20051;-94
2022/05/31 07:06:42;;;;;;;9.05;5.60;;;13.60;99.90;;;;;;4909422;29;20050;-94
2022/05/31 07:09:18;;;;;;;8.90;6.07;;;13.80;99.90;;;;;;4933389;29;20044;-96
2022/05/31 07:11:44;;;;;;;9.10;5.05;;;13.80;99.90;;;;;;4915847;29;20076;-94
2022/05/31 07:14:09;;;;;;;9.85;5.75;;;13.90;99.90;;;;;;4917595;29;20055;-94
2022/05/31 07:16:35;;;;;;;7.80;5.00;;;13.90;99.90;;;;;;4904892;29;20052;-96
2022/05/31 07:19:06;;;;;;;7.97;4.78;;;14.00;99.90;;;;;;4925722;29;20048;-95
2022/05/31 07:21:32;;;;;;;;;;;13.90;99.90;;;;;;4909941;29;20100;-94
2022/05/31 07:23:57;;;;;;;8.32;4.82;;;13.80;99.90;;;;;;4897486;29;19930;-93
2022/05/31 07:26:24;;;;;;;9.07;5.35;;;13.70;99.90;;;;;;4890820;29;20075;-90
2022/05/31 07:28:50;;;;;;;8.13;5.13;;;13.80;99.90;;;;;;4915733;29;20048;-93
2022/05/31 07:31:15;;;;;;;8.02;5.10;;;13.90;99.90;;;;;;4923372;29;20106;-92
2022/05/31 07:33:41;;;;;;;8.35;4.95;;;13.90;99.90;;;;;;4917065;29;20040;-92
2022/05/31 07:36:22;;;;;;;8.15;4.32;;;14.00;99.90;;;;;;4920590;29;20056;-91
2022/05/31 07:38:47;;;;;;;7.63;5.00;;;14.10;99.90;;;;;;4916341;29;20048;-90
2022/05/31 07:41:13;;;;;;;8.60;4.70;;;14.10;99.90;;;;;;4912013;29;20048;-92
2022/05/31 07:43:39;;;;;;;8.45;4.38;;;14.20;99.90;;;;;;4898209;29;20044;-92
2022/05/31 07:46:10;;;;;;;10.90;4.82;;;14.20;99.90;;;;;;4909521;29;20048;-88
2022/05/31 07:48:37;;;;;;;7.57;4.40;;;14.40;99.90;;;;;;4915984;29;20044;-90
2022/05/31 07:51:04;;;;;;;7.50;4.00;;;14.40;99.90;;;;;;4916997;29;21220;-93
2022/05/31 07:53:30;;;;;;;7.57;4.45;;;14.50;99.90;;;;;;4905035;29;20052;-89
2022/05/31 07:56:00;;;;;;;7.63;4.38;;;14.60;99.90;;;;;;4896451;29;20050;-85
2022/05/31 07:58:33;;;;;;;8.07;4.20;;;14.60;99.90;;;;;;4900390;29;20046;-86
2022/05/31 08:01:05;;;;;;;8.35;3.90;;;14.80;99.90;;;;;;4889577;29;20565;-88
2022/05/31 08:03:32;;;;;;;10.55;4.38;;;14.90;99.90;;;;;;4916645;29;20059;-89
2022/05/31 08:06:01;;;;;;;8.45;4.05;;;14.80;99.90;;;;;;4913603;29;20055;-89
2022/05/31 08:08:26;;;;;;;8.32;4.45;;;14.80;99.90;;;;;;4894811;29;20051;-86
2022/05/31 08:10:52;;;;;;;7.75;3.97;;;15.00;99.90;;;;;;4919483;29;20052;-89
2022/05/31 08:13:18;;;;;;;7.47;4.40;;;15.10;99.90;;;;;;4911095;29;20111;-89
2022/05/31 08:15:43;;;;;;;7.57;3.83;;;15.10;99.90;;;;;;4909430;29;20122;-86
2022/05/31 08:18:09;;;;;;;8.43;4.32;;;15.20;99.90;;;;;;4904011;29;20058;-86
2022/05/31 08:20:36;;;;;;;9.43;4.20;;;15.20;99.90;;;;;;4906520;29;20044;-88
2022/05/31 08:23:02;;;;;;;7.32;4.00;;;15.30;99.90;;;;;;4914984;29;20062;-87
2022/05/31 08:25:28;;;;;;;7.95;3.90;;;15.30;99.90;;;;;;4922114;29;20043;-86
2022/05/31 08:27:53;;;;;;;8.52;3.72;;;15.40;99.90;;;;;;4888892;29;20379;-88
2022/05/31 08:30:19;;;;;;;7.90;3.92;;;15.50;99.90;;;;;;4917707;29;20374;-90
2022/05/31 08:32:45;;;;;;;7.53;3.67;;;15.60;99.90;;;;;;4907785;29;20493;-86
2022/05/31 08:35:10;;;;;;;8.88;4.28;;;15.70;99.90;;;;;;4925386;29;20071;-87
2022/05/31 08:37:36;;;;;;;7.60;4.18;;;15.80;99.90;;;;;;4906004;29;20048;-88
2022/05/31 08:40:03;;;;;;;7.13;3.40;;;15.80;99.90;;;;;;4909586;29;20814;-88
2022/05/31 08:42:57;;;;;;;7.10;4.10;;;15.90;99.90;;;;;;4926501;29;20135;-88
2022/05/31 08:45:41;;;;;;;9.45;4.90;;;15.90;99.90;;;;;;4904397;29;20094;-91
2022/05/31 08:48:41;;;;;;;11.07;4.80;;;16.10;99.90;;;;;;4913871;29;20051;-87
2022/05/31 08:57:03;;;;;;;9.43;4.95;;;16.30;99.90;;;;;;4909396;29;20041;-88
2022/05/31 08:59:36;;;;;;;9.45;5.45;;;16.30;99.90;;;;;;4905627;29;20052;-87
2022/05/31 09:02:07;;;;;;;8.95;5.75;;;16.20;99.90;;;;;;4893178;29;20052;-87
2022/05/31 09:04:36;;;;;;;7.93;5.10;;;16.20;99.90;;;;;;4898794;29;20221;-88
2022/05/31 09:07:08;;;;;;;9.02;5.00;;;16.30;99.90;;;;;;4905208;29;20413;-87
2022/05/31 09:09:51;;;;;;;8.48;5.53;;;16.30;99.90;;;;;;4906416;29;20047;-88
2022/05/31 09:12:32;;;;;;;11.30;6.60;;;16.50;99.90;;;;;;4890781;29;20056;-93
2022/05/31 09:15:36;;;;;;;10.45;6.53;;;16.70;99.90;;;;;;4918449;29;20044;-89
2022/05/31 09:18:26;;;;;;;12.27;7.15;;;16.90;99.90;;;;;;4904587;29;20056;-87
2022/05/31 09:21:04;;;;;;;9.52;6.25;;;16.90;99.90;;;;;;4901281;29;20380;-88
2022/05/31 09:23:40;;;;;;;9.48;5.93;;;17.00;99.90;;;;;;4899833;29;20049;-88
2022/05/31 09:26:06;;;;;;;11.10;6.72;;;17.00;99.90;;;;;;4928370;29;20076;-89
2022/05/31 09:28:53;;;;;;;11.20;7.05;;;17.00;99.90;;;;;;4914744;29;20107;-88
2022/05/31 09:31:56;;;;;;;8.93;5.95;;;16.90;99.90;;;;;;4910442;29;20063;-87
2022/05/31 09:34:33;;;;;;;9.65;5.90;;;16.90;99.90;;;;;;4912380;29;20044;-86
2022/05/31 09:37:05;;;;;;;10.60;6.28;;;16.80;99.90;;;;;;4898254;29;20498;-90
2022/05/31 09:39:45;;;;;;;8.73;5.38;;;16.80;99.90;;;;;;4904603;29;20075;-87
2022/05/31 09:42:37;;;;;;;8.97;4.80;;;16.70;99.90;;;;;;4908768;29;20103;-95
2022/05/31 09:45:10;;;;;;;7.53;4.50;;;16.70;99.90;;;;;;4926050;29;20051;-88
2022/05/31 09:47:36;;;;;;;8.45;4.03;;;16.50;99.90;;;;;;4909268;29;20438;-88
2022/05/31 09:50:02;;;;;;;8.57;4.40;;;16.40;99.90;;;;;;4907761;29;20360;-88
2022/05/31 09:52:34;;;;;;;8.10;3.67;;;16.40;99.90;;;;;;4905641;29;20502;-88
2022/05/31 09:58:08;;;;;;;9.27;4.20;;;16.30;99.90;;;;;;4920265;29;20056;-89
2022/05/31 10:00:36;;;;;;;7.22;4.13;;;16.20;99.90;;;;;;4906513;29;20463;-92
2022/05/31 10:03:09;;;;;;;7.57;4.13;;;16.30;99.90;;;;;;4919341;29;20480;-89
2022/05/31 10:05:36;;;;;;;7.53;4.10;;;16.30;99.90;;;;;;4919472;29;20044;-89
2022/05/31 10:08:03;;;;;;;7.38;3.63;;;16.30;99.90;;;;;;4906362;29;20611;-87
2022/05/31 10:10:35;;;;;;;7.55;3.45;;;16.40;99.90;;;;;;4916909;29;20194;-88
2022/05/31 10:13:04;;;;;;;7.40;3.20;;;16.50;99.90;;;;;;4925576;29;20067;-88
2022/05/31 10:15:34;;;;;;;7.45;4.05;;;16.60;99.90;;;;;;4897254;29;20134;-89
2022/05/31 10:18:04;;;;;;;8.13;4.47;;;16.80;99.90;;;;;;4900690;29;20471;-88
2022/05/31 10:20:31;;;;;;;8.55;4.65;;;17.00;99.90;;;;;;4906981;29;20491;-92
2022/05/31 10:23:13;;;;;;;7.85;4.93;;;17.10;99.90;;;;;;4915051;29;20099;-87
2022/05/31 10:25:54;;;;;;;8.68;5.07;;;17.30;99.80;;;;;;4910336;29;20047;-87
2022/05/31 10:28:45;;;;;;;7.93;4.35;;;17.40;99.90;;;;;;4912182;29;20059;-87
2022/05/31 10:31:20;;;;;;;7.85;4.30;;;17.50;99.90;;;;;;4911449;29;20895;-86
2022/05/31 10:33:58;;;;;;;8.95;4.18;;;17.60;99.90;;;;;;4909499;29;20051;-88
2022/05/31 10:36:48;;;;;;;7.93;3.90;;;17.60;99.90;;;;;;4905802;29;20861;-85
2022/05/31 10:39:21;;;;;;;9.15;4.38;;;17.90;98.90;;;;;;4910350;29;20397;-84
2022/05/31 10:41:49;;;;;;;7.97;4.88;;;17.90;99.40;;;;;;4890188;29;20037;-85
2022/05/31 10:44:32;;;;;;;8.00;4.30;;;17.90;99.20;;;;;;4931711;29;20401;-86
2022/05/31 10:47:10;;;;;;;8.70;4.45;;;18.00;98.90;;;;;;4905883;29;20420;-84
2022/05/31 10:49:37;;;;;;;8.65;4.90;;;18.10;96.90;;;;;;4904059;29;20072;-87
2022/05/31 10:52:12;;;;;;;8.48;4.55;;;18.10;97.30;;;;;;4912070;29;20532;-87
2022/05/31 10:55:11;;;;;;;8.25;4.43;;;18.10;96.40;;;;;;4925417;29;20131;-86
2022/05/31 10:57:48;;;;;;;8.02;4.18;;;18.10;95.90;;;;;;4865158;29;20056;-86
2022/05/31 11:00:21;;;;;;;7.97;4.97;;;18.10;96.00;;;;;;4918344;29;20187;-87
2022/05/31 11:02:50;;;;;;;7.90;4.25;;;18.20;95.90;;;;;;4913094;29;20131;-86
2022/05/31 11:05:19;;;;;;;8.85;4.32;;;18.20;95.80;;;;;;4907115;29;20091;-91
2022/05/31 11:11:28;;;;;;;8.85;4.00;;;18.10;94.10;;;;;;4907498;29;20490;-90
2022/05/31 11:14:42;;;;;;;7.50;4.30;;;18.00;94.90;;;;;;4908132;29;20159;-89
2022/05/31 11:17:29;;;;;;;7.88;4.15;;;17.90;94.70;;;;;;4892821;29;20410;-89
2022/05/31 11:20:17;;;;;;;8.07;4.20;;;17.90;95.60;;;;;;4922269;29;20445;-89
2022/05/31 11:23:22;;;;;;;8.18;4.30;;;17.80;95.00;;;;;;4907596;29;20070;-89
2022/05/31 11:26:14;;;;;;;8.07;3.42;;;17.80;94.00;;;;;;4911569;29;20057;-89
2022/05/31 11:28:52;;;;;;;8.68;4.00;;;17.80;93.80;;;;;;4892603;29;20080;-89
2022/05/31 11:31:56;;;;;;;8.48;4.20;;;17.90;94.00;;;;;;4907013;29;20048;-88
2022/05/31 11:34:34;;;;;;;7.82;4.35;;;17.90;91.50;;;;;;4909506;29;20063;-91
2022/05/31 11:37:30;;;;;;;8.63;4.55;;;17.90;93.60;;;;;;4906522;29;20135;-88
2022/05/31 11:40:09;;;;;;;8.93;5.00;;;17.90;93.00;;;;;;4908565;29;20575;-88
2022/05/31 11:42:41;;;;;;;8.18;4.45;;;17.80;93.30;;;;;;4889215;29;20134;-87
2022/05/31 11:45:19;;;;;;;10.95;5.05;;;17.80;93.30;;;;;;4909331;29;20064;-88
2022/05/31 11:48:06;;;;;;;7.45;4.35;;;17.80;93.00;;;;;;4907476;29;20573;-88
2022/05/31 11:50:47;;;;;;;7.88;4.38;;;17.80;93.70;;;;;;4908057;29;20044;-86
2022/05/31 11:53:21;;;;;;;8.60;4.90;;;17.80;93.20;;;;;;4921518;29;20045;-92
2022/05/31 11:55:49;;;;;;;10.45;5.10;;;17.90;93.90;;;;;;4899258;29;20114;-94
2022/05/31 11:58:30;;;;;;;8.82;4.97;;;18.00;93.70;;;;;;4911515;29;20130;-92
2022/05/31 12:01:04;;;;;;;8.27;4.93;;;18.00;93.20;;;;;;4921970;29;20601;-94
2022/05/31 12:04:03;;;;;;;8.77;4.97;;;18.10;93.50;;;;;;4894695;29;20048;-92
2022/05/31 12:06:53;;;;;;;9.65;4.32;;;18.20;94.90;;;;;;4909794;29;20082;-93
2022/05/31 12:09:38;;;;;;;9.15;4.35;;;18.10;92.00;;;;;;4909041;29;20051;-92
2022/05/31 12:12:09;;;;;;;8.13;4.25;;;18.10;92.40;;;;;;4905597;29;20051;-91
2022/05/31 12:14:43;;;;;;;7.65;4.35;;;18.00;91.60;;;;;;4909985;29;20067;-92
2022/05/31 12:17:09;;;;;;;8.38;4.60;;;18.00;91.60;;;;;;4936244;29;20050;-95
2022/05/31 12:19:50;;;;;;;8.27;4.80;;;17.90;91.90;;;;;;4894329;29;20044;-93
2022/05/31 12:22:22;;;;;;;11.70;5.32;;;17.90;92.00;;;;;;4919566;29;20392;-93
2022/05/31 12:25:09;;;;;;;10.15;6.43;;;18.00;93.60;;;;;;4909896;29;20179;-91
2022/05/31 12:27:47;;;;;;;10.32;7.30;;;18.00;94.80;;;;;;4929107;29;20048;-90
2022/05/31 12:30:22;;;;;;;11.85;7.80;;;17.90;95.90;;;;;;4904007;29;20044;-90
2022/05/31 12:32:53;;;;;;;10.90;7.50;;;17.80;97.10;;;;;;4921441;29;20063;-91
2022/05/31 12:35:30;;;;;;;17.27;8.07;;;17.80;97.60;;;;;;4907200;29;20041;-90
2022/05/31 12:38:02;;;;;;;13.13;7.82;;;17.60;98.00;;;;;;4907186;29;20052;-91
2022/05/31 12:40:34;;;;;;;11.77;7.72;;;17.50;99.40;;;;;;4912746;29;20076;-93
2022/05/31 12:43:00;;;;;;;10.05;6.63;;;17.40;98.60;;;;;;4899960;29;20152;-94
2022/05/31 12:45:39;;;;;;;9.88;7.20;;;17.40;99.30;;;;;;4910472;29;20044;-91
2022/05/31 12:48:20;;;;;;;10.63;7.70;;;17.40;99.90;;;;;;4904128;29;20040;-90
2022/05/31 12:51:06;;;;;;;23.75;8.20;;;17.30;99.20;;;;;;4907602;29;20048;-91
2022/05/31 12:53:37;;;;;;;27.70;8.32;;;17.30;99.10;;;;;;4898314;29;20998;-90
2022/05/31 12:56:06;;;;;;;10.65;6.72;;;17.20;97.40;;;;;;4898641;29;20051;-93
2022/05/31 12:58:48;;;;;;;12.07;6.97;;;17.10;97.80;;;;;;4906528;29;20079;-91
2022/05/31 13:01:14;;;;;;;17.02;7.40;;;17.00;96.60;;;;;;4910373;29;20386;-90
2022/05/31 13:03:43;;;;;;;17.92;7.25;;;17.00;97.30;;;;;;4904162;29;20055;-93
2022/05/31 13:06:34;;;;;;;31.02;8.68;;;16.90;97.70;;;;;;4916073;29;20044;-91
2022/05/31 13:09:23;;;;;;;67.40;12.68;;;16.80;98.50;;;;;;4897298;29;20052;-91
2022/05/31 13:20:59;;;;;;;12.48;7.65;;;16.60;99.90;;;;;;4911340;29;20556;-90
2022/05/31 13:23:34;;;;;;;40.58;10.93;;;16.50;99.90;;;;;;4918331;29;20083;-91
2022/05/31 13:26:19;;;;;;;15.15;8.65;;;16.50;99.90;;;;;;4939541;29;20051;-90
2022/05/31 13:28:57;;;;;;;14.85;8.48;;;16.50;99.90;;;;;;4917943;29;20048;-91
2022/05/31 13:31:25;;;;;;;10.52;6.43;;;16.40;99.90;;;;;;4896866;29;20052;-91
2022/05/31 13:33:58;;;;;;;9.70;6.38;;;16.40;99.90;;;;;;4910417;29;20504;-94
2022/05/31 13:36:31;;;;;;;10.32;6.32;;;16.40;99.90;;;;;;4917935;29;20132;-93
2022/05/31 13:39:06;;;;;;;11.73;7.03;;;16.30;99.90;;;;;;4910707;29;20454;-90
2022/05/31 13:41:32;;;;;;;9.07;5.63;;;16.20;99.90;;;;;;4922921;29;20126;-94
2022/05/31 13:44:01;;;;;;;10.88;6.30;;;16.20;99.90;;;;;;4920557;29;20061;-92
2022/05/31 13:46:37;;;;;;;11.10;6.28;;;16.10;99.90;;;;;;4902514;29;20052;-94